createdAt,value
2022-08-26T00:03:45.090Z,100841.77
2022-08-26T00:07:33.057Z,100841.23
2022-08-26T00:11:26.784Z,100832.27
2022-08-26T00:15:14.613Z,100831.33
2022-08-26T00:19:02.327Z,100827.70
2022-08-26T00:22:50.320Z,100815.95
2022-08-26T00:26:28.573Z,100817.45
2022-08-26T00:30:17.594Z,100810.46
2022-08-26T00:34:11.266Z,100806.80
2022-08-26T00:37:52.420Z,100806.02
2022-08-26T00:41:33.969Z,100807.00
2022-08-26T00:45:14.703Z,100804.02
2022-08-26T00:49:01.393Z,100804.08
2022-08-26T00:52:49.970Z,100799.83
2022-08-26T00:56:32.003Z,100802.58
2022-08-26T01:00:12.903Z,100797.32
2022-08-26T01:03:59.040Z,100798.73
2022-08-26T01:07:48.180Z,100797.27
2022-08-26T01:11:30.380Z,100795.93
2022-08-26T01:15:18.087Z,100795.04
2022-08-26T01:19:04.877Z,100789.72
2022-08-26T01:23:01.612Z,100796.67
2022-08-26T01:26:51.142Z,100797.73
2022-08-26T01:30:39.244Z,100795.59
2022-08-26T01:34:33.339Z,100799.61
2022-08-26T01:38:21.154Z,100797.89
2022-08-26T01:42:05.416Z,100794.66
2022-08-26T01:45:51.053Z,100787.73
2022-08-26T01:49:38.708Z,100783.21
2022-08-26T01:53:17.648Z,100783.06
2022-08-26T01:57:04.666Z,100783.56
2022-08-26T02:00:51.514Z,100780.90
2022-08-26T02:04:48.592Z,100775.42
2022-08-26T02:08:37.651Z,100776.35
2022-08-26T02:12:24.352Z,100774.11
2022-08-26T02:16:06.598Z,100771.77
2022-08-26T02:19:43.389Z,100767.05
2022-08-26T02:23:31.421Z,100769.55
2022-08-26T02:27:12.559Z,100764.30
2022-08-26T02:31:00.671Z,100766.29
2022-08-26T02:34:53.247Z,100764.27
2022-08-26T02:38:40.979Z,100760.77
2022-08-26T02:42:23.944Z,100761.73
2022-08-26T02:46:12.974Z,100755.27
2022-08-26T02:50:09.511Z,100756.02
2022-08-26T02:53:50.324Z,100755.18
2022-08-26T02:57:39.238Z,100756.27
2022-08-26T03:01:20.206Z,100755.86
2022-08-26T03:05:09.688Z,100755.07
2022-08-26T03:08:57.394Z,100751.39
2022-08-26T03:12:48.093Z,100757.36
2022-08-26T03:16:36.167Z,100752.95
2022-08-26T03:20:24.704Z,100753.63
2022-08-26T03:24:11.792Z,100752.23
2022-08-26T03:27:59.654Z,100747.20
2022-08-26T03:31:47.046Z,100750.52
2022-08-26T03:35:33.751Z,100745.89
2022-08-26T03:39:21.663Z,100742.34
2022-08-26T03:43:02.206Z,100744.98
2022-08-26T03:46:50.210Z,100749.20
2022-08-26T03:50:38.170Z,100745.86
2022-08-26T03:54:24.649Z,100744.02
2022-08-26T03:58:04.918Z,100747.59
2022-08-26T04:01:53.535Z,100745.95
2022-08-26T04:05:35.111Z,100749.73
2022-08-26T04:09:22.915Z,100751.21
2022-08-26T04:13:12.654Z,100750.55
2022-08-26T04:16:55.347Z,100753.09
2022-08-26T04:20:34.498Z,100755.97
2022-08-26T04:24:15.517Z,100753.05
2022-08-26T04:28:04.959Z,100752.45
2022-08-26T04:31:55.548Z,100758.14
2022-08-26T04:35:44.405Z,100756.12
2022-08-26T04:39:34.575Z,100754.36
2022-08-26T04:43:21.585Z,100754.62
2022-08-26T04:47:09.526Z,100761.44
2022-08-26T04:50:59.172Z,100760.91
2022-08-26T04:54:39.516Z,100760.39
2022-08-26T04:58:30.230Z,100757.37
2022-08-26T05:02:18.322Z,100755.95
2022-08-26T05:06:06.794Z,100763.67
2022-08-26T05:09:47.654Z,100764.52
2022-08-26T05:13:27.836Z,100766.66
2022-08-26T05:16:58.144Z,100763.27
2022-08-26T05:20:45.835Z,100772.98
2022-08-26T05:24:37.311Z,100770.80
2022-08-26T05:28:25.297Z,100771.30
2022-08-26T05:32:12.003Z,100780.02
2022-08-26T05:35:52.473Z,100778.50
2022-08-26T05:39:41.266Z,100776.19
2022-08-26T05:43:31.316Z,100779.42
2022-08-26T05:47:12.248Z,100777.41
2022-08-26T05:51:00.098Z,100777.60
2022-08-26T05:54:40.602Z,100778.66
2022-08-26T05:58:28.372Z,100777.64
2022-08-26T06:02:16.148Z,100777.27
2022-08-26T06:06:04.422Z,100775.05
2022-08-26T06:10:05.429Z,100778.55
2022-08-26T06:14:03.856Z,100775.77
2022-08-26T06:17:44.333Z,100769.59
2022-08-26T06:21:31.832Z,100768.48
2022-08-26T06:25:18.580Z,100769.71
2022-08-26T06:28:57.421Z,100767.27
2022-08-26T06:32:45.235Z,100769.95
2022-08-26T06:36:32.977Z,100769.36
2022-08-26T06:40:19.308Z,100769.09
2022-08-26T06:44:05.569Z,100772.48
2022-08-26T06:47:54.390Z,100766.11
2022-08-26T06:51:42.360Z,100763.66
2022-08-26T06:55:30.146Z,100765.97
2022-08-26T06:59:17.964Z,100766.94
2022-08-26T07:03:06.307Z,100758.70
2022-08-26T07:06:55.535Z,100759.80
2022-08-26T07:10:43.577Z,100751.20
2022-08-26T07:14:32.186Z,100754.36
2022-08-26T07:18:20.156Z,100753.81
2022-08-26T07:22:10.985Z,100751.59
2022-08-26T07:25:58.732Z,100754.02
2022-08-26T07:29:44.449Z,100756.17
2022-08-26T07:33:26.650Z,100758.63
2022-08-26T07:37:15.038Z,100759.77
2022-08-26T07:41:06.047Z,100757.20
2022-08-26T07:44:49.163Z,100759.73
2022-08-26T07:48:38.175Z,100757.73
2022-08-26T07:52:27.587Z,100757.33
2022-08-26T07:56:16.327Z,100756.54
2022-08-26T08:00:04.281Z,100755.16
2022-08-26T08:03:52.504Z,100754.61
2022-08-26T08:07:44.621Z,100757.06
2022-08-26T08:11:34.244Z,100755.32
2022-08-26T08:15:23.574Z,100743.55
2022-08-26T08:19:12.069Z,100755.86
2022-08-26T08:22:53.535Z,100746.48
2022-08-26T08:26:41.012Z,100749.64
2022-08-26T08:30:29.370Z,100747.54
2022-08-26T08:34:18.119Z,100744.59
2022-08-26T08:38:00.555Z,100737.85
2022-08-26T08:41:43.213Z,100738.93
2022-08-26T08:45:35.948Z,100734.45
2022-08-26T08:49:28.063Z,100729.87
2022-08-26T08:53:25.829Z,100730.35
2022-08-26T08:57:13.390Z,100721.53
2022-08-26T09:01:10.613Z,100728.25
2022-08-26T09:05:15.122Z,100727.05
2022-08-26T09:09:03.566Z,100718.41
2022-08-26T09:12:50.631Z,100719.88
2022-08-26T09:16:48.793Z,100720.34
2022-08-26T09:20:49.350Z,100716.29
2022-08-26T09:24:41.809Z,100709.23
2022-08-26T09:28:35.952Z,100705.46
2022-08-26T09:32:30.402Z,100706.79
2022-08-26T09:36:27.151Z,100703.86
2022-08-26T09:40:35.030Z,100707.42
2022-08-26T09:44:23.121Z,100704.02
2022-08-26T09:48:13.712Z,100693.34
2022-08-26T09:52:20.897Z,100692.40
2022-08-26T09:56:04.366Z,100687.09
2022-08-26T09:59:54.557Z,100687.10
2022-08-26T10:03:42.671Z,100686.41
2022-08-26T10:07:36.254Z,100688.46
2022-08-26T10:11:25.233Z,100683.73
2022-08-26T10:15:12.820Z,100683.67
2022-08-26T10:19:00.160Z,100675.61
2022-08-26T10:23:00.646Z,100667.61
2022-08-26T10:27:06.659Z,100665.70
2022-08-26T10:30:58.338Z,100663.86
2022-08-26T10:34:46.502Z,100660.04
2022-08-26T10:38:40.745Z,100660.61
2022-08-26T10:42:32.323Z,100653.88
2022-08-26T10:46:15.460Z,100650.25
2022-08-26T10:49:55.584Z,100650.11
2022-08-26T10:54:00.139Z,100653.59
2022-08-26T10:57:53.570Z,100645.94
2022-08-26T11:01:55.875Z,100635.68
2022-08-26T11:05:46.548Z,100636.30
2022-08-26T11:09:34.078Z,100638.29
2022-08-26T11:13:26.197Z,100634.54
2022-08-26T11:17:14.036Z,100629.09
2022-08-26T11:21:10.242Z,100622.16
2022-08-26T11:24:56.104Z,100616.98
2022-08-26T11:28:50.376Z,100619.41
2022-08-26T11:32:39.201Z,100613.37
2022-08-26T11:36:28.173Z,100602.29
2022-08-26T11:40:16.223Z,100605.00
2022-08-26T11:44:06.927Z,100596.35
2022-08-26T11:47:54.692Z,100591.13
2022-08-26T11:51:52.125Z,100591.30
2022-08-26T11:55:39.844Z,100586.23
2022-08-26T11:59:27.891Z,100578.15
2022-08-26T12:03:18.597Z,100579.82
2022-08-26T12:07:24.105Z,100582.25
2022-08-26T12:11:12.705Z,100575.14
2022-08-26T12:15:01.529Z,100574.05
2022-08-26T12:18:59.869Z,100571.77
2022-08-26T12:22:48.412Z,100563.39
2022-08-26T12:26:41.943Z,100559.68
2022-08-26T12:30:28.811Z,100548.48
2022-08-26T12:34:17.830Z,100538.95
2022-08-26T12:38:06.211Z,100531.88
2022-08-26T12:42:00.346Z,100534.57
2022-08-26T12:46:14.204Z,100530.58
2022-08-26T12:50:02.187Z,100523.86
2022-08-26T12:53:50.448Z,100522.65
2022-08-26T12:57:38.366Z,100515.97
2022-08-26T13:01:37.926Z,100507.82
2022-08-26T13:05:38.043Z,100507.91
2022-08-26T13:09:28.223Z,100499.77
2022-08-26T13:13:30.932Z,100493.30
2022-08-26T13:17:20.246Z,100494.54
2022-08-26T13:21:08.151Z,100490.71
2022-08-26T13:24:55.955Z,100487.98
2022-08-26T13:28:43.680Z,100486.83
2022-08-26T13:32:31.991Z,100482.00
2022-08-26T13:36:12.938Z,100475.11
2022-08-26T13:40:00.325Z,100467.80
2022-08-26T13:43:48.982Z,100472.25
2022-08-26T14:05:47.392Z,100447.08
2022-08-26T14:09:38.571Z,100438.58
2022-08-26T14:13:27.820Z,100436.84
2022-08-26T14:17:17.681Z,100436.13
2022-08-26T14:21:07.435Z,100434.58
2022-08-26T14:24:56.861Z,100437.09
2022-08-26T14:28:46.322Z,100439.88
2022-08-26T14:32:36.511Z,100440.91
2022-08-26T14:36:24.577Z,100437.39
2022-08-26T14:40:13.184Z,100437.98
2022-08-26T14:44:01.821Z,100443.77
2022-08-26T14:47:50.257Z,100435.20
2022-08-26T14:51:39.250Z,100434.85
2022-08-26T14:55:30.281Z,100427.73
2022-08-26T14:59:20.407Z,100425.65
2022-08-26T15:18:18.319Z,100416.97
2022-08-26T15:22:07.269Z,100411.36
2022-08-26T15:25:54.899Z,100403.90
2022-08-26T15:29:47.045Z,100405.00
2022-08-26T15:33:35.481Z,100398.36
2022-08-26T15:37:23.944Z,100394.65
2022-08-26T15:41:12.511Z,100398.71
2022-08-26T15:44:54.433Z,100393.77
2022-08-26T15:48:42.905Z,100403.61
2022-08-26T15:52:31.389Z,100397.80
2022-08-26T15:56:19.783Z,100401.48
2022-08-26T16:00:01.008Z,100404.80
2022-08-26T16:03:49.491Z,100410.16
2022-08-26T16:07:37.950Z,100403.52
2022-08-26T16:11:20.232Z,100409.02
2022-08-26T16:14:57.688Z,100409.80
2022-08-26T16:18:14.047Z,100405.89
2022-08-26T16:21:32.901Z,100404.84
2022-08-26T16:25:14.272Z,100410.32
2022-08-26T16:28:51.883Z,100405.99
2022-08-26T16:32:31.317Z,100406.27
2022-08-26T16:36:19.936Z,100403.30
2022-08-26T16:39:40.194Z,100401.06
2022-08-26T16:43:05.308Z,100404.05
2022-08-26T16:46:56.031Z,100402.89
2022-08-26T16:50:47.813Z,100401.95
2022-08-26T16:54:16.497Z,100404.42
2022-08-26T16:57:42.009Z,100405.13
2022-08-26T17:01:31.744Z,100402.20
2022-08-26T17:05:00.521Z,100405.78
2022-08-26T17:08:24.245Z,100403.23
2022-08-26T17:12:16.934Z,100402.61
2022-08-26T17:15:58.472Z,100402.98
2022-08-26T17:19:18.926Z,100399.26
2022-08-26T17:23:01.750Z,100393.89
2022-08-26T17:26:34.120Z,100391.34
2022-08-26T17:30:18.808Z,100393.85
2022-08-26T17:34:08.193Z,100389.37
2022-08-26T17:37:32.856Z,100383.90
2022-08-26T17:41:21.388Z,100384.27
2022-08-26T17:45:09.833Z,100384.66
2022-08-26T17:48:49.569Z,100382.19
2022-08-26T17:52:39.698Z,100384.38
2022-08-26T17:56:27.481Z,100377.92
2022-08-26T18:00:06.997Z,100384.87
2022-08-26T18:03:36.618Z,100381.90
2022-08-26T18:07:26.125Z,100375.67
2022-08-26T18:11:15.989Z,100377.61
2022-08-26T18:14:36.093Z,100375.27
2022-08-26T18:18:16.721Z,100375.34
2022-08-26T18:21:55.324Z,100374.10
2022-08-26T18:25:38.687Z,100377.67
2022-08-26T18:29:29.433Z,100377.77
2022-08-26T18:33:19.080Z,100381.75
2022-08-26T18:40:52.185Z,100383.89
2022-08-26T18:44:41.443Z,100386.79
2022-08-26T18:48:30.538Z,100386.33
2022-08-26T18:52:21.958Z,100392.13
2022-08-26T18:56:14.316Z,100398.67
2022-08-26T19:00:05.497Z,100397.45
2022-08-26T19:03:53.571Z,100401.54
2022-08-26T19:07:39.397Z,100409.73
2022-08-26T19:11:31.578Z,100415.70
2022-08-26T19:15:22.181Z,100417.12
2022-08-26T19:18:39.583Z,100418.91
2022-08-26T19:22:29.570Z,100416.73
2022-08-26T19:26:25.486Z,100416.48
2022-08-26T19:29:36.126Z,100414.10
2022-08-26T19:33:16.802Z,100411.34
2022-08-26T19:37:08.859Z,100405.35
2022-08-26T19:40:58.652Z,100404.19
2022-08-26T19:44:31.825Z,100414.80
2022-08-26T19:48:16.632Z,100425.37
2022-08-26T19:51:59.821Z,100431.42
2022-08-26T19:55:50.819Z,100435.72
2022-08-26T19:59:34.774Z,100435.31
2022-08-26T20:03:21.552Z,100435.12
2022-08-26T20:06:57.567Z,100438.83
2022-08-26T20:10:50.117Z,100444.39
2022-08-26T20:14:34.175Z,100443.65
2022-08-26T20:18:12.001Z,100447.00
2022-08-26T20:22:01.357Z,100447.41
2022-08-26T20:25:44.237Z,100444.33
2022-08-26T20:29:34.787Z,100440.34
2022-08-26T20:33:27.467Z,100444.45
2022-08-26T20:37:18.460Z,100441.88
2022-08-26T20:41:08.018Z,100438.85
2022-08-26T20:45:00.376Z,100440.73
2022-08-26T20:48:51.388Z,100442.86
2022-08-26T20:52:33.031Z,100439.45
2022-08-26T20:56:16.583Z,100433.80
2022-08-26T21:00:06.706Z,100435.06
2022-08-26T21:03:48.460Z,100433.22
2022-08-26T21:07:37.774Z,100431.89
2022-08-26T21:11:28.183Z,100433.46
2022-08-26T21:15:18.448Z,100434.11
2022-08-26T21:19:07.143Z,100432.71
2022-08-26T21:23:00.970Z,100437.80
2022-08-26T21:26:51.414Z,100434.16
2022-08-26T21:30:45.009Z,100437.58
2022-08-26T21:34:36.980Z,100428.67
2022-08-26T21:38:11.224Z,100430.27
2022-08-26T21:41:47.020Z,100432.84
2022-08-26T21:45:38.477Z,100427.53
2022-08-26T21:49:15.728Z,100423.16
2022-08-26T21:52:56.904Z,100416.81
2022-08-26T21:56:47.965Z,100413.45
2022-08-26T22:00:30.096Z,100406.73
2022-08-26T22:04:19.852Z,100404.95
2022-08-26T22:07:54.210Z,100407.38
2022-08-26T22:11:34.034Z,100406.51
2022-08-26T22:15:23.326Z,100403.70
2022-08-26T22:19:02.536Z,100400.73
2022-08-26T22:22:44.459Z,100397.34
2022-08-26T22:26:04.459Z,100398.36
2022-08-26T22:29:54.815Z,100406.99
2022-08-26T22:33:42.445Z,100409.84
2022-08-26T22:37:30.172Z,100411.17
2022-08-26T22:41:00.561Z,100410.65
2022-08-26T22:44:36.384Z,100412.88
2022-08-26T22:48:16.407Z,100413.08
2022-08-26T22:52:04.094Z,100404.98
2022-08-26T22:55:44.436Z,100403.81
2022-08-26T22:59:32.117Z,100401.05
2022-08-26T23:03:02.395Z,100393.66
2022-08-26T23:06:50.140Z,100390.13
2022-08-26T23:10:38.029Z,100378.38
2022-08-26T23:14:26.226Z,100382.14
2022-08-26T23:17:58.512Z,100397.70
2022-08-26T23:21:39.364Z,100386.64
2022-08-26T23:25:27.572Z,100377.55
2022-08-26T23:28:58.676Z,100381.77
2022-08-26T23:32:46.525Z,100386.24
2022-08-26T23:36:35.110Z,100386.73
2022-08-26T23:40:23.235Z,100377.38
2022-08-26T23:44:12.170Z,100367.63
2022-08-26T23:47:59.921Z,100378.27
2022-08-26T23:51:46.125Z,100386.73
2022-08-26T23:55:28.498Z,100375.09
2022-08-26T23:59:16.106Z,100368.08
